Time;durP1;ratioP1;P1;durP2;ratioP2;P2;SDS_P1;SDS_P2;PMS_P1;PMS_P2;Temp;Humidity;BMP_temperature;BMP_pressure;BME280_temperature;BME280_humidity;BME280_pressure;Samples;Min_cycle;Max_cycle;Signal;HPM_P1;HPM_P2
2023/06/28 00:01:00;;;;;;;15.77;3.90;;;;;;;11.79;100.00;101270.53;7394648;19;20534;-46
2023/06/28 00:03:29;;;;;;;7.40;3.13;;;;;;;11.80;100.00;101267.13;7366094;19;20582;-41
2023/06/28 00:05:59;;;;;;;8.73;3.33;;;;;;;11.80;100.00;101274.88;7395444;19;20936;-40
2023/06/28 00:08:28;;;;;;;9.30;4.20;;;;;;;11.73;100.00;101272.00;7367103;19;20504;-45
2023/06/28 00:10:58;;;;;;;10.57;4.40;;;;;;;11.79;100.00;101281.72;7391404;19;21253;-43
2023/06/28 00:13:27;;;;;;;14.20;4.00;;;;;;;11.87;100.00;101275.22;7368091;19;20429;-42
2023/06/28 00:16:00;;;;;;;14.97;3.80;;;;;;;11.86;100.00;101280.31;7394404;19;20411;-41
2023/06/28 00:18:30;;;;;;;8.50;3.87;;;;;;;11.83;100.00;101285.34;7366717;19;20444;-43
2023/06/28 00:21:00;;;;;;;6.50;3.00;;;;;;;11.77;100.00;101283.38;7394111;19;20462;-40
2023/06/28 00:23:30;;;;;;;12.00;4.20;;;;;;;11.71;100.00;101280.50;7367915;19;20447;-43
2023/06/28 00:26:00;;;;;;;10.20;3.40;;;;;;;11.67;100.00;101288.94;7393725;19;20405;-40
2023/06/28 00:28:29;;;;;;;7.33;4.13;;;;;;;11.70;100.00;101277.03;7368040;19;20449;-40
2023/06/28 00:31:02;;;;;;;9.03;4.20;;;;;;;11.70;100.00;101283.91;7393820;19;20452;-42
2023/06/28 00:33:31;;;;;;;17.20;3.83;;;;;;;11.69;100.00;101290.78;7367944;19;20520;-40
2023/06/28 00:36:01;;;;;;;7.23;3.27;;;;;;;11.70;100.00;101289.09;7395351;19;20510;-40
2023/06/28 00:38:30;;;;;;;7.63;3.23;;;;;;;11.67;100.00;101289.81;7367602;19;20445;-42
2023/06/28 00:41:00;;;;;;;10.20;3.40;;;;;;;11.65;100.00;101286.28;7394665;19;20445;-40
2023/06/28 00:43:29;;;;;;;7.10;3.77;;;;;;;11.69;100.00;101298.53;7368046;19;20441;-44
2023/06/28 00:46:01;;;;;;;11.50;3.67;;;;;;;11.70;100.00;101296.84;7392937;19;20964;-42
2023/06/28 00:48:32;;;;;;;11.33;3.30;;;;;;;11.63;100.00;101302.53;7369549;19;20432;-40
2023/06/28 00:51:02;;;;;;;5.67;3.10;;;;;;;11.50;100.00;101306.25;7394824;19;20451;-42
2023/06/28 00:53:32;;;;;;;5.17;2.90;;;;;;;11.54;100.00;101308.16;7367169;19;20506;-43
2023/06/28 00:56:01;;;;;;;9.87;3.50;;;;;;;11.46;100.00;101313.88;7392110;19;20467;-40
2023/06/28 00:58:31;;;;;;;11.63;3.40;;;;;;;11.39;100.00;101314.38;7367459;19;20433;-41
2023/06/28 01:01:03;;;;;;;14.93;3.63;;;;;;;11.37;100.00;101318.59;7393192;19;20462;-42
2023/06/28 01:03:35;;;;;;;10.87;4.07;;;;;;;11.53;100.00;101316.75;7366687;19;20432;-44
2023/06/28 01:06:06;;;;;;;9.57;4.13;;;;;;;11.43;100.00;101315.44;7393964;19;20399;-41
2023/06/28 01:08:35;;;;;;;8.73;3.40;;;;;;;11.35;100.00;101313.34;7366227;19;20426;-41
2023/06/28 01:11:05;;;;;;;12.83;3.87;;;;;;;11.29;100.00;101319.94;7392536;19;20458;-42
2023/06/28 01:13:35;;;;;;;10.50;3.70;;;;;;;11.22;100.00;101318.72;7366535;19;20443;-38
2023/06/28 01:16:07;;;;;;;8.60;4.07;;;;;;;11.15;100.00;101320.16;7394027;19;20419;-42
2023/06/28 01:18:37;;;;;;;12.33;3.47;;;;;;;11.09;100.00;101325.03;7366056;19;20654;-40
2023/06/28 01:21:08;;;;;;;12.67;3.40;;;;;;;11.12;100.00;101320.00;7391799;19;20444;-42
2023/06/28 01:23:40;;;;;;;10.33;3.60;;;;;;;11.11;100.00;101322.50;7368361;19;20444;-44
2023/06/28 01:26:11;;;;;;;6.43;3.37;;;;;;;11.02;100.00;101322.94;7398759;19;20517;-41
2023/06/28 01:28:41;;;;;;;10.53;3.60;;;;;;;10.96;100.00;101327.81;7373410;19;20442;-42
2023/06/28 01:31:11;;;;;;;6.43;3.63;;;;;;;10.93;100.00;101326.84;7400164;19;20464;-42
2023/06/28 01:33:42;;;;;;;12.10;4.60;;;;;;;10.92;100.00;101326.78;7373238;19;20459;-42
2023/06/28 01:36:12;;;;;;;11.63;3.90;;;;;;;11.13;100.00;101332.09;7400750;19;20778;-40
2023/06/28 01:38:44;;;;;;;7.30;3.43;;;;;;;11.05;100.00;101328.25;7372792;19;20446;-43
2023/06/28 01:41:14;;;;;;;13.00;4.13;;;;;;;11.04;100.00;101332.50;7397655;19;21010;-42
2023/06/28 01:43:44;;;;;;;5.40;3.57;;;;;;;11.01;100.00;101336.66;7372925;19;20438;-42
2023/06/28 01:46:13;;;;;;;6.67;3.83;;;;;;;10.98;100.00;101339.09;7398317;19;20431;-42
2023/06/28 01:48:43;;;;;;;9.37;4.00;;;;;;;11.00;100.00;101346.09;7373516;19;20484;-39
2023/06/28 01:51:13;;;;;;;9.23;3.63;;;;;;;10.97;100.00;101345.06;7398595;19;20464;-40
2023/06/28 01:53:45;;;;;;;9.90;4.57;;;;;;;10.94;100.00;101357.00;7372536;19;21049;-39
2023/06/28 01:56:15;;;;;;;5.90;3.33;;;;;;;10.96;100.00;101357.09;7397001;19;20414;-43
2023/06/28 01:58:44;;;;;;;13.13;4.40;;;;;;;10.97;100.00;101358.84;7374242;19;20443;-41
2023/06/28 02:01:15;;;;;;;11.57;4.37;;;;;;;10.93;100.00;101360.41;7397249;19;21041;-44
2023/06/28 02:03:44;;;;;;;10.00;4.30;;;;;;;11.07;100.00;101365.34;7368449;19;20436;-44
2023/06/28 02:06:14;;;;;;;11.20;4.67;;;;;;;11.02;100.00;101364.28;7397962;19;20429;-43
2023/06/28 02:08:46;;;;;;;9.93;3.90;;;;;;;10.96;100.00;101363.97;7372617;19;20851;-42
2023/06/28 02:11:16;;;;;;;5.97;3.80;;;;;;;10.93;100.00;101369.84;7397114;19;20457;-40
2023/06/28 02:13:45;;;;;;;8.33;4.03;;;;;;;10.97;100.00;101360.56;7374369;19;21053;-41
2023/06/28 02:16:16;;;;;;;8.83;4.80;;;;;;;11.00;100.00;101369.34;7398409;19;20768;-43
2023/06/28 02:18:46;;;;;;;11.23;4.00;;;;;;;10.99;100.00;101369.25;7375188;19;20985;-40
2023/06/28 02:21:16;;;;;;;11.80;4.57;;;;;;;10.97;100.00;101366.59;7397590;19;20440;-41
2023/06/28 02:23:48;;;;;;;21.13;6.47;;;;;;;11.03;100.00;101371.19;7375615;19;20452;-40
2023/06/28 02:26:17;;;;;;;9.40;4.30;;;;;;;10.93;100.00;101373.31;7397442;19;20419;-42
2023/06/28 02:28:47;;;;;;;11.50;4.90;;;;;;;10.93;100.00;101373.31;7374483;19;20802;-45
2023/06/28 02:31:17;;;;;;;14.50;5.00;;;;;;;10.96;100.00;101371.72;7398616;19;20463;-43
2023/06/28 02:33:47;;;;;;;15.40;5.13;;;;;;;10.99;100.00;101382.16;7371072;19;20475;-44
2023/06/28 02:36:16;;;;;;;18.53;4.80;;;;;;;11.00;100.00;101374.50;7396374;19;20428;-40
2023/06/28 02:38:49;;;;;;;9.40;4.10;;;;;;;11.05;100.00;101367.00;7373691;19;20450;-41
2023/06/28 02:41:18;;;;;;;9.87;4.87;;;;;;;11.06;100.00;101372.22;7396786;19;20990;-40
2023/06/28 02:43:48;;;;;;;9.27;4.40;;;;;;;11.13;100.00;101375.13;7373586;19;20919;-41
2023/06/28 02:46:17;;;;;;;8.17;4.00;;;;;;;11.15;100.00;101371.81;7396816;19;20412;-41
2023/06/28 02:48:47;;;;;;;8.10;4.57;;;;;;;11.17;100.00;101375.34;7373205;19;20526;-44
2023/06/28 02:51:17;;;;;;;6.83;4.30;;;;;;;11.20;100.00;101379.78;7395241;19;20448;-40
2023/06/28 02:53:49;;;;;;;7.17;4.80;;;;;;;11.21;100.00;101382.44;7372163;19;20433;-44
2023/06/28 02:56:18;;;;;;;7.30;4.23;;;;;;;11.20;100.00;101380.69;7395893;19;20425;-40
2023/06/28 02:58:48;;;;;;;10.97;5.37;;;;;;;11.23;100.00;101377.31;7372756;19;20438;-40
2023/06/28 03:01:18;;;;;;;8.60;4.80;;;;;;;11.23;100.00;101389.38;7396257;19;20526;-42
2023/06/28 03:03:48;;;;;;;10.47;5.53;;;;;;;11.32;100.00;101389.81;7372886;19;20443;-40
2023/06/28 03:06:18;;;;;;;13.13;5.57;;;;;;;11.30;100.00;101386.28;7395739;19;20429;-42
2023/06/28 03:08:51;;;;;;;16.27;5.60;;;;;;;11.35;100.00;101387.38;7373048;19;20442;-44
2023/06/28 03:11:20;;;;;;;10.80;4.70;;;;;;;11.37;100.00;101387.47;7387157;19;20454;-40
2023/06/28 03:13:50;;;;;;;12.87;5.27;;;;;;;11.37;100.00;101385.75;7394270;19;20414;-42
2023/06/28 03:16:19;;;;;;;9.90;5.40;;;;;;;11.33;100.00;101397.63;7395852;19;20433;-42
2023/06/28 03:18:49;;;;;;;10.60;5.20;;;;;;;11.40;100.00;101391.09;7393265;19;20798;-43
2023/06/28 03:21:19;;;;;;;18.37;6.20;;;;;;;11.43;100.00;101393.81;7396421;19;20447;-43
2023/06/28 03:23:51;;;;;;;14.93;6.47;;;;;;;11.42;100.00;101391.13;7372213;19;20445;-47
2023/06/28 03:26:20;;;;;;;10.60;5.70;;;;;;;11.40;100.00;101392.78;7385179;19;20474;-39
2023/06/28 03:28:50;;;;;;;9.20;5.37;;;;;;;11.38;100.00;101390.09;7395186;19;20422;-40
2023/06/28 03:31:20;;;;;;;16.10;6.53;;;;;;;11.44;100.00;101394.69;7393358;19;20455;-37
2023/06/28 03:33:49;;;;;;;12.70;6.67;;;;;;;11.41;100.00;101398.03;7391667;19;20462;-43
2023/06/28 03:36:19;;;;;;;14.13;6.23;;;;;;;11.47;100.00;101394.84;7395715;19;20404;-42
2023/06/28 03:38:51;;;;;;;16.70;5.73;;;;;;;11.50;100.00;101399.28;7372044;19;20440;-41
2023/06/28 03:41:20;;;;;;;15.30;9.10;;;;;;;11.47;100.00;101395.72;7382387;19;20439;-38
2023/06/28 03:43:50;;;;;;;14.20;5.43;;;;;;;11.48;100.00;101396.59;7393311;19;20437;-40
2023/06/28 03:46:20;;;;;;;13.10;5.97;;;;;;;11.51;100.00;101395.88;7388831;19;20424;-39
2023/06/28 03:48:49;;;;;;;14.80;5.57;;;;;;;11.54;100.00;101396.03;7392543;19;21006;-40
2023/06/28 03:51:19;;;;;;;26.47;8.50;;;;;;;11.58;100.00;101393.66;7389785;19;20452;-43
2023/06/28 03:53:51;;;;;;;12.90;6.13;;;;;;;11.62;100.00;101394.69;7370566;19;20451;-41
2023/06/28 03:56:21;;;;;;;17.50;6.87;;;;;;;11.63;100.00;101391.28;7381658;19;20486;-41
2023/06/28 03:58:51;;;;;;;11.93;6.63;;;;;;;11.65;100.00;101391.38;7395231;19;20478;-39
2023/06/28 04:01:21;;;;;;;17.13;6.80;;;;;;;11.66;100.00;101394.03;7378955;19;20460;-40
2023/06/28 04:03:50;;;;;;;14.20;5.77;;;;;;;11.66;100.00;101401.78;7392969;19;20579;-44
2023/06/28 04:06:20;;;;;;;16.77;6.80;;;;;;;11.73;100.00;101387.44;7385024;19;20942;-39
2023/06/28 04:08:52;;;;;;;11.53;5.73;;;;;;;11.76;100.00;101387.59;7395746;19;20793;-40
2023/06/28 04:11:22;;;;;;;13.27;5.77;;;;;;;11.82;100.00;101400.81;7371372;19;20440;-45
2023/06/28 04:13:52;;;;;;;17.43;6.67;;;;;;;11.88;100.00;101389.84;7390850;19;20484;-42
2023/06/28 04:16:21;;;;;;;13.50;6.53;;;;;;;11.93;100.00;101388.38;7372286;19;20954;-40
2023/06/28 04:18:52;;;;;;;19.97;6.60;;;;;;;12.00;100.00;101395.59;7394013;19;20488;-41
2023/06/28 04:21:22;;;;;;;15.10;6.00;;;;;;;12.06;100.00;101397.63;7371681;19;20433;-41
2023/06/28 04:23:54;;;;;;;14.87;6.20;;;;;;;12.12;100.00;101391.84;7393298;19;20741;-41
2023/06/28 04:26:24;;;;;;;17.03;5.87;;;;;;;12.11;100.00;101390.94;7371491;19;20477;-43
2023/06/28 04:28:54;;;;;;;15.93;6.40;;;;;;;12.17;100.00;101395.53;7391333;19;20421;-43
2023/06/28 04:31:24;;;;;;;12.37;5.50;;;;;;;12.21;100.00;101407.75;7371849;19;20814;-43
2023/06/28 04:33:55;;;;;;;14.17;6.10;;;;;;;12.31;100.00;101403.88;7391056;19;20410;-42
2023/06/28 04:36:25;;;;;;;14.83;5.63;;;;;;;12.39;100.00;101397.38;7370594;19;20942;-43
2023/06/28 04:38:57;;;;;;;14.50;6.27;;;;;;;12.46;100.00;101388.16;7393762;19;20436;-40
2023/06/28 04:41:27;;;;;;;15.17;6.00;;;;;;;12.50;100.00;101408.19;7369911;19;20451;-42
2023/06/28 04:43:58;;;;;;;14.23;5.83;;;;;;;12.53;100.00;101403.16;7392127;19;21199;-42
2023/06/28 04:46:29;;;;;;;9.03;5.30;;;;;;;12.62;100.00;101404.38;7370528;19;20412;-43
2023/06/28 04:48:59;;;;;;;13.33;5.40;;;;;;;12.67;100.00;101408.06;7392754;19;20419;-44
2023/06/28 04:51:29;;;;;;;16.53;5.13;;;;;;;12.78;100.00;101416.28;7370543;19;20432;-42
2023/06/28 04:54:02;;;;;;;16.00;6.50;;;;;;;12.87;100.00;101416.66;7391140;19;20431;-40
2023/06/28 04:56:32;;;;;;;19.80;7.30;;;;;;;12.94;100.00;101420.44;7369357;19;20501;-42
2023/06/28 04:59:02;;;;;;;13.53;5.30;;;;;;;13.02;100.00;101424.22;7397721;19;20486;-43
2023/06/28 05:01:31;;;;;;;15.00;5.37;;;;;;;13.09;100.00;101430.56;7377147;19;21160;-45
2023/06/28 05:04:01;;;;;;;11.73;5.30;;;;;;;13.15;100.00;101438.59;7398232;19;20425;-40
2023/06/28 05:06:31;;;;;;;13.17;5.60;;;;;;;13.19;100.00;101444.78;7376535;19;20450;-43
2023/06/28 05:09:03;;;;;;;13.20;5.97;;;;;;;13.28;100.00;101449.47;7401363;19;20429;-44
2023/06/28 05:11:33;;;;;;;11.37;4.83;;;;;;;13.37;100.00;101461.09;7378494;19;20517;-43
2023/06/28 05:14:02;;;;;;;17.30;5.87;;;;;;;13.50;100.00;101466.81;7397142;19;20471;-40
2023/06/28 05:16:32;;;;;;;11.63;5.20;;;;;;;13.56;100.00;101472.25;7379150;19;20770;-43
2023/06/28 05:19:01;;;;;;;13.70;5.30;;;;;;;13.66;100.00;101480.41;7397306;19;20861;-41
2023/06/28 05:21:31;;;;;;;16.37;4.90;;;;;;;13.67;100.00;101485.66;7376776;19;20458;-41
2023/06/28 05:24:03;;;;;;;14.23;4.53;;;;;;;13.76;100.00;101496.38;7399653;19;20417;-43
2023/06/28 05:26:33;;;;;;;8.73;4.63;;;;;;;13.82;100.00;101503.53;7379763;19;20406;-41
2023/06/28 05:29:02;;;;;;;12.37;4.47;;;;;;;13.82;100.00;101508.72;7398330;19;20958;-43
2023/06/28 05:31:32;;;;;;;12.33;5.20;;;;;;;13.84;100.00;101512.25;7376961;19;20447;-40
2023/06/28 05:34:02;;;;;;;11.03;5.00;;;;;;;13.90;100.00;101515.09;7398876;19;20396;-47
2023/06/28 05:36:31;;;;;;;11.90;4.50;;;;;;;13.98;100.00;101527.47;7377916;19;20987;-43
2023/06/28 05:39:04;;;;;;;10.17;4.43;;;;;;;14.02;100.00;101531.97;7397767;19;20419;-42
2023/06/28 05:41:35;;;;;;;10.30;4.13;;;;;;;14.08;100.00;101532.22;7378444;19;20514;-43
2023/06/28 05:44:04;;;;;;;8.73;3.70;;;;;;;14.14;100.00;101532.47;7396969;19;20400;-39
2023/06/28 05:46:34;;;;;;;11.93;4.60;;;;;;;14.25;100.00;101539.81;7377226;19;20814;-42
2023/06/28 05:49:09;;;;;;;9.23;4.30;;;;;;;14.32;100.00;101544.41;7397616;19;20487;-43
2023/06/28 05:51:39;;;;;;;7.17;4.30;;;;;;;14.44;100.00;101544.88;7376218;19;20430;-40
2023/06/28 05:54:11;;;;;;;7.80;4.53;;;;;;;14.43;100.00;101553.50;7397738;19;20487;-42
2023/06/28 05:56:40;;;;;;;8.20;4.10;;;;;;;14.50;100.00;101548.53;7370346;19;20377;-42
2023/06/28 05:59:10;;;;;;;11.47;3.70;;;;;;;14.54;100.00;101553.91;7396880;19;20415;-40
2023/06/28 06:01:40;;;;;;;10.90;4.00;;;;;;;14.65;100.00;101553.41;7374873;19;20404;-42
2023/06/28 06:04:10;;;;;;;64.90;27.73;;;;;;;14.77;100.00;101555.63;7397068;19;20434;-43
2023/06/28 06:06:40;;;;;;;6.77;3.30;;;;;;;14.86;100.00;101558.56;7374878;19;20803;-43
2023/06/28 06:09:12;;;;;;;10.17;3.63;;;;;;;14.86;100.00;101555.94;7396290;19;21350;-43
2023/06/28 06:11:41;;;;;;;18.17;7.13;;;;;;;14.93;100.00;101555.34;7375098;19;21711;-43
2023/06/28 06:14:11;;;;;;;17.53;6.30;;;;;;;15.06;100.00;101563.59;7397292;19;20424;-41
2023/06/28 06:16:40;;;;;;;15.63;6.40;;;;;;;15.14;100.00;101564.78;7373219;19;20471;-43
2023/06/28 06:19:10;;;;;;;20.80;7.30;;;;;;;15.22;100.00;101565.03;7397287;19;20814;-42
2023/06/28 06:21:43;;;;;;;61.30;23.87;;;;;;;15.28;100.00;101572.16;7368961;19;20415;-39
2023/06/28 06:24:15;;;;;;;17.13;5.83;;;;;;;15.35;100.00;101562.03;7397057;19;20408;-41
2023/06/28 06:26:44;;;;;;;13.43;4.30;;;;;;;15.36;100.00;101565.50;7369016;19;20395;-44
2023/06/28 06:29:14;;;;;;;10.73;2.60;;;;;;;15.48;100.00;101565.94;7398269;19;20502;-43
2023/06/28 06:31:44;;;;;;;12.80;3.50;;;;;;;15.53;100.00;101566.09;7370324;19;20514;-40
2023/06/28 06:34:13;;;;;;;51.13;18.83;;;;;;;15.62;100.00;101568.13;7395335;19;20408;-40
2023/06/28 06:36:43;;;;;;;43.30;19.10;;;;;;;15.66;100.00;101560.47;7369586;19;20397;-42
2023/06/28 06:39:15;;;;;;;16.67;5.50;;;;;;;15.78;100.00;101569.53;7395822;19;20415;-43
2023/06/28 06:41:45;;;;;;;10.53;3.80;;;;;;;15.82;100.00;101573.09;7372089;19;20420;-47
2023/06/28 06:44:14;;;;;;;34.73;12.90;;;;;;;15.94;100.00;101576.13;7394594;19;20415;-41
2023/06/28 06:46:44;;;;;;;31.97;13.33;;;;;;;15.89;100.00;101593.31;7368550;19;20423;-40
2023/06/28 06:49:18;;;;;;;8.13;3.80;;;;;;;15.95;100.00;101587.44;7395511;19;20962;-40
2023/06/28 06:51:48;;;;;;;64.37;24.63;;;;;;;15.97;100.00;101597.06;7371669;19;20414;-39
2023/06/28 06:54:20;;;;;;;18.93;7.80;;;;;;;16.13;100.00;101597.56;7394758;19;20487;-41
2023/06/28 06:56:50;;;;;;;47.40;19.33;;;;;;;16.12;100.00;101601.00;7369027;19;20399;-42
2023/06/28 06:59:23;;;;;;;32.10;12.97;;;;;;;16.28;100.00;101603.28;7394237;19;20487;-40
2023/06/28 07:01:53;;;;;;;6.23;2.20;;;;;;;16.31;100.00;101608.56;7363761;19;20838;-42
2023/06/28 07:04:24;;;;;;;7.40;2.40;;;;;;;16.40;100.00;101604.50;7392685;19;20525;-42
2023/06/28 07:06:55;;;;;;;11.53;4.67;;;;;;;16.39;100.00;101607.91;7364593;19;21002;-42
2023/06/28 07:09:28;;;;;;;8.77;2.40;;;;;;;16.40;100.00;101614.91;7395406;19;20743;-43
2023/06/28 07:11:58;;;;;;;27.17;11.63;;;;;;;16.57;100.00;101628.47;7367639;19;20413;-42
2023/06/28 07:14:27;;;;;;;29.57;10.87;;;;;;;16.54;100.00;101641.38;7393075;19;20399;-42
2023/06/28 07:16:57;;;;;;;10.53;2.27;;;;;;;16.67;100.00;101642.66;7365110;19;20403;-43
2023/06/28 07:19:26;;;;;;;20.47;6.30;;;;;;;16.70;100.00;101643.63;7393952;19;20415;-42
2023/06/28 07:21:56;;;;;;;19.47;7.67;;;;;;;16.72;100.00;101647.16;7361257;19;20470;-40
2023/06/28 07:24:28;;;;;;;7.37;1.97;;;;;;;16.57;100.00;101650.16;7395682;19;20422;-44
2023/06/28 07:26:58;;;;;;;56.10;23.00;;;;;;;16.64;100.00;101647.75;7366539;19;20406;-41
2023/06/28 07:29:27;;;;;;;47.33;21.37;;;;;;;16.81;100.00;101646.53;7393163;19;20423;-43
2023/06/28 07:31:57;;;;;;;8.57;2.60;;;;;;;16.97;100.00;101652.22;7365310;19;20558;-40
2023/06/28 07:34:27;;;;;;;18.17;7.80;;;;;;;16.85;100.00;101652.72;7392882;19;20424;-42
2023/06/28 07:36:57;;;;;;;17.70;7.40;;;;;;;16.78;100.00;101662.09;7365539;19;20766;-42
2023/06/28 07:39:30;;;;;;;9.83;4.60;;;;;;;17.04;100.00;101667.25;7392832;19;20483;-43
2023/06/28 07:42:00;;;;;;;6.03;3.03;;;;;;;17.30;100.00;101667.13;7367206;19;21045;-41
2023/06/28 07:44:29;;;;;;;28.40;10.20;;;;;;;17.03;100.00;101661.97;7392454;19;20414;-43
2023/06/28 07:46:59;;;;;;;6.60;2.43;;;;;;;17.01;100.00;101648.84;7366288;19;20850;-41
2023/06/28 07:49:28;;;;;;;35.17;16.03;;;;;;;16.87;100.00;101641.53;7393056;19;20767;-42
2023/06/28 07:51:58;;;;;;;27.77;12.23;;;;;;;16.83;100.00;101639.66;7363405;19;20482;-41
2023/06/28 07:54:30;;;;;;;9.20;2.63;;;;;;;16.82;100.00;101650.91;7393555;19;20967;-42
2023/06/28 07:57:03;;;;;;;11.33;4.63;;;;;;;17.12;100.00;101646.59;7365746;19;20982;-42
2023/06/28 07:59:33;;;;;;;6.57;2.13;;;;;;;17.36;100.00;101637.69;7393295;19;20407;-44
2023/06/28 08:02:02;;;;;;;29.93;10.80;;;;;;;17.48;100.00;101643.25;7366542;19;20767;-39
2023/06/28 08:04:32;;;;;;;72.67;31.37;;;;;;;17.45;100.00;101644.91;7391400;19;20947;-44
2023/06/28 08:07:02;;;;;;;35.03;14.70;;;;;;;17.30;100.00;101638.44;7362188;19;20398;-43
2023/06/28 08:09:34;;;;;;;19.43;8.73;;;;;;;17.12;100.00;101634.44;7392908;19;20839;-42
2023/06/28 08:12:03;;;;;;;33.57;15.43;;;;;;;17.10;100.00;101649.19;7364059;19;20425;-44
2023/06/28 08:14:33;;;;;;;9.97;3.53;;;;;;;17.34;100.00;101648.09;7393769;19;20424;-42
2023/06/28 08:17:02;;;;;;;8.33;3.90;;;;;;;17.64;100.00;101646.28;7363390;19;20422;-43
2023/06/28 08:19:32;;;;;;;7.60;2.60;;;;;;;17.75;100.00;101643.97;7393264;19;20503;-42
2023/06/28 08:22:03;;;;;;;10.17;2.70;;;;;;;17.72;100.00;101636.03;7362040;19;20420;-43
2023/06/28 08:24:35;;;;;;;28.03;7.60;;;;;;;17.59;100.00;101633.09;7388801;19;20423;-48
2023/06/28 08:27:05;;;;;;;16.47;6.60;;;;;;;17.52;100.00;101646.81;7359983;19;20424;-41
2023/06/28 08:29:34;;;;;;;7.83;2.50;;;;;;;17.50;100.00;101645.91;7391285;19;20797;-40
2023/06/28 08:32:04;;;;;;;5.47;2.27;;;;;;;17.48;100.00;101645.88;7363158;19;20422;-42
2023/06/28 08:34:34;;;;;;;6.47;2.77;;;;;;;17.86;100.00;101642.53;7399496;19;20413;-42
2023/06/28 08:37:03;;;;;;;14.53;4.80;;;;;;;17.97;100.00;101642.78;7367274;19;20417;-43
2023/06/28 08:39:36;;;;;;;10.40;3.60;;;;;;;17.89;100.00;101653.03;7397537;19;20411;-42
2023/06/28 08:42:07;;;;;;;11.20;2.80;;;;;;;18.08;100.00;101653.53;7369349;19;21372;-42
2023/06/28 08:44:36;;;;;;;15.73;4.40;;;;;;;18.24;100.00;101643.47;7396710;19;21073;-44
2023/06/28 08:47:08;;;;;;;17.70;6.87;;;;;;;18.39;100.00;101651.66;7368558;19;20410;-42
2023/06/28 08:49:38;;;;;;;4.67;2.40;;;;;;;18.31;100.00;101653.22;7398385;19;21112;-44
2023/06/28 08:52:08;;;;;;;7.47;2.67;;;;;;;18.34;100.00;101654.16;7369433;19;20482;-40
2023/06/28 08:54:41;;;;;;;8.50;3.40;;;;;;;18.53;100.00;101657.22;7398346;19;20411;-44
2023/06/28 08:57:11;;;;;;;8.20;2.83;;;;;;;18.67;100.00;101649.66;7369551;19;20403;-43
2023/06/28 08:59:41;;;;;;;5.70;2.17;;;;;;;18.76;100.00;101647.28;7399116;19;21014;-43
2023/06/28 09:02:11;;;;;;;8.20;2.37;;;;;;;18.97;100.00;101652.94;7370189;19;20407;-41
2023/06/28 09:04:41;;;;;;;8.27;2.93;;;;;;;19.28;100.00;101648.38;7400989;19;20415;-46
2023/06/28 09:07:11;;;;;;;5.77;2.40;;;;;;;19.13;100.00;101646.31;7364067;19;21029;-44
2023/06/28 09:09:44;;;;;;;5.73;2.27;;;;;;;18.94;100.00;101632.84;7398741;19;20399;-43
2023/06/28 09:12:14;;;;;;;6.27;2.53;;;;;;;18.48;100.00;101636.22;7372036;19;20851;-41
2023/06/28 09:14:43;;;;;;;9.43;4.10;;;;;;;18.32;100.00;101640.16;7399231;19;20759;-41
2023/06/28 09:17:13;;;;;;;5.80;2.50;;;;;;;18.12;100.00;101626.66;7369645;19;20419;-45
2023/06/28 09:19:43;;;;;;;11.17;2.50;;;;;;;18.14;100.00;101616.25;7399185;19;21011;-43
2023/06/28 09:22:12;;;;;;;9.10;3.10;;;;;;;18.53;100.00;101619.72;7363777;19;20478;-41
2023/06/28 09:24:45;;;;;;;9.30;3.70;;;;;;;18.83;100.00;101616.94;7400730;19;20410;-40
2023/06/28 09:27:14;;;;;;;8.87;3.23;;;;;;;19.13;100.00;101609.72;7372881;19;20474;-41
2023/06/28 09:29:44;;;;;;;8.73;2.73;;;;;;;19.24;100.00;101621.28;7396768;19;20435;-45
2023/06/28 09:32:13;;;;;;;8.70;3.33;;;;;;;19.48;100.00;101613.84;7371887;19;20766;-42
2023/06/28 09:34:44;;;;;;;13.73;2.27;;;;;;;19.40;100.00;101632.00;7399121;19;20399;-44
2023/06/28 09:37:14;;;;;;;6.30;2.40;;;;;;;19.63;100.00;101618.50;7370464;19;20403;-40
2023/06/28 09:39:46;;;;;;;7.23;3.00;;;;;;;19.73;100.00;101614.28;7396745;19;20491;-42
2023/06/28 09:42:15;;;;;;;6.20;2.07;;;;;;;19.84;100.00;101613.59;7371924;19;20427;-43
2023/06/28 09:44:57;;;;;;;7.60;2.47;;;;;;;19.52;100.00;101616.53;7398576;19;20418;-42
2023/06/28 09:47:33;;;;;;;5.30;2.33;;;;;;;19.17;100.00;101616.75;7372661;19;20395;-44
2023/06/28 09:50:04;;;;;;;10.77;2.63;;;;;;;18.82;100.00;101614.28;7397431;19;20414;-46
2023/06/28 09:52:37;;;;;;;11.20;2.87;;;;;;;18.68;100.00;101612.25;7369282;19;20414;-42
2023/06/28 09:55:10;;;;;;;6.30;2.57;;;;;;;18.61;100.00;101612.97;7399499;19;20411;-44
2023/06/28 09:57:40;;;;;;;7.53;3.37;;;;;;;18.63;100.00;101608.66;7367709;19;20422;-47
2023/06/28 10:00:13;;;;;;;8.40;3.07;;;;;;;18.54;100.00;101611.03;7397437;19;20406;-42
2023/06/28 10:02:43;;;;;;;8.90;2.87;;;;;;;18.56;100.00;101610.22;7367853;19;20458;-45
2023/06/28 10:05:14;;;;;;;5.90;2.60;;;;;;;18.56;100.00;101615.47;7398055;19;20999;-40
2023/06/28 10:07:44;;;;;;;9.13;2.87;;;;;;;18.76;100.00;101618.50;7368786;19;20431;-44
2023/06/28 10:10:18;;;;;;;8.00;3.30;;;;;;;18.90;100.00;101625.75;7397081;19;20435;-40
2023/06/28 10:12:49;;;;;;;9.53;3.20;;;;;;;19.13;100.00;101623.66;7365887;19;20451;-44
2023/06/28 10:15:24;;;;;;;5.47;2.67;;;;;;;19.38;100.00;101629.34;7398065;19;20482;-41
2023/06/28 10:17:54;;;;;;;8.73;2.60;;;;;;;19.80;100.00;101639.72;7370521;19;21094;-43
2023/06/28 10:20:24;;;;;;;8.47;2.53;;;;;;;20.08;100.00;101638.47;7397894;19;20411;-47
2023/06/28 10:22:53;;;;;;;8.10;3.23;;;;;;;20.08;100.00;101643.72;7368334;19;20442;-44
2023/06/28 10:25:28;;;;;;;10.57;3.30;;;;;;;19.73;100.00;101662.28;7398341;19;20431;-40
2023/06/28 10:27:57;;;;;;;6.67;2.67;;;;;;;19.29;100.00;101661.47;7367753;19;20456;-41
2023/06/28 10:30:27;;;;;;;6.97;2.43;;;;;;;19.02;100.00;101657.44;7400265;19;20495;-42
2023/06/28 10:32:58;;;;;;;7.77;2.17;;;;;;;18.95;100.00;101660.75;7368788;19;20816;-41
2023/06/28 10:35:28;;;;;;;6.97;2.40;;;;;;;18.90;100.00;101657.13;7393613;19;20410;-43
2023/06/28 10:37:58;;;;;;;7.30;2.67;;;;;;;19.25;100.00;101658.75;7363761;19;21000;-41
2023/06/28 10:40:30;;;;;;;4.10;2.03;;;;;;;19.74;100.00;101673.63;7397424;19;20408;-42
2023/06/28 10:43:00;;;;;;;5.30;2.00;;;;;;;20.05;100.00;101675.06;7365581;19;20430;-44
2023/06/28 10:45:37;;;;;;;4.20;1.83;;;;;;;20.45;100.00;101666.13;7400288;19;20433;-42
2023/06/28 10:48:07;;;;;;;7.90;2.77;;;;;;;19.86;100.00;101672.97;7367411;19;20917;-41
2023/06/28 10:50:44;;;;;;;7.87;2.40;;;;;;;19.80;100.00;101676.38;7397575;19;20399;-42
2023/06/28 10:53:22;;;;;;;7.40;2.70;;;;;;;20.02;100.00;101675.03;7365971;19;20426;-41
2023/06/28 10:56:13;;;;;;;6.10;2.17;;;;;;;20.28;100.00;101677.22;7390701;19;20404;-42
2023/06/28 10:58:43;;;;;;;6.90;2.20;;;;;;;20.29;100.00;101676.34;7365221;19;21074;-42
2023/06/28 11:01:15;;;;;;;7.70;2.50;;;;;;;20.61;100.00;101673.31;7397424;19;20459;-43
2023/06/28 11:03:45;;;;;;;7.83;2.17;;;;;;;20.83;100.00;101671.03;7366496;19;20999;-41
2023/06/28 11:06:18;;;;;;;5.67;2.07;;;;;;;20.86;100.00;101671.09;7396446;19;20395;-40
2023/06/28 11:08:48;;;;;;;9.07;2.30;;;;;;;20.77;100.00;101682.28;7373145;19;20510;-41
2023/06/28 11:11:37;;;;;;;4.97;1.97;;;;;;;20.22;100.00;101684.97;7396500;19;20462;-43
2023/06/28 11:14:19;;;;;;;9.07;2.50;;;;;;;20.37;100.00;101669.47;7373987;19;20551;-39
2023/06/28 11:16:49;;;;;;;6.07;1.80;;;;;;;20.64;100.00;101676.00;7364377;19;20395;-43
2023/06/28 11:19:22;;;;;;;7.63;1.93;;;;;;;20.87;100.00;101667.59;7395553;19;20403;-41
2023/06/28 11:21:58;;;;;;;5.57;1.70;;;;;;;21.07;100.00;101672.22;7366626;19;20494;-41
2023/06/28 11:24:38;;;;;;;3.80;1.50;;;;;;;20.89;100.00;101628.28;7394791;19;20424;-42
2023/06/28 11:27:15;;;;;;;7.20;1.90;;;;;;;21.06;100.00;101562.91;7366045;19;20842;-43